Weather at Nea Anchialos National Airport

Public forecast

Using degrees Celsius for public forecast. Weather courtesy of forecast.io.

Current aviation weather report (METAR) for Nea Anchialos National Airport

Retrieved 2021/08/04 14:20 UTC (24 minutes ago):

LGBL 041420Z 04007KT CAVOK 36/19 Q1011

Closest aviation forecast (TAF) to Nea Anchialos National Airport

Forecast is more than 12 hours old.

Closest forecast is Skiathos Island National Airport, 33.1 nm (61.3 km) E. Retrieved 2012/09/27 00:18 UTC (9 years ago):

TAF LGSK 272300Z 2800/2909 01010KT 9999 FEW020